createdAt,value
2022-11-07T00:00:20.605Z,95909.66
2022-11-07T00:02:47.015Z,95912.31
2022-11-07T00:05:13.448Z,95909.88
2022-11-07T00:07:39.860Z,95910.25
2022-11-07T00:10:06.656Z,95899.88
2022-11-07T00:12:36.514Z,95906.19
2022-11-07T00:15:04.190Z,95892.97
2022-11-07T00:17:30.631Z,95892.16
2022-11-07T00:19:57.083Z,95893.16
2022-11-07T00:22:23.774Z,95889.69
2022-11-07T00:24:50.143Z,95886.66
2022-11-07T00:27:16.591Z,95892.34
2022-11-07T00:29:43.000Z,95886.63
2022-11-07T00:32:09.427Z,95890.03
2022-11-07T00:34:35.841Z,95877.25
2022-11-07T00:37:02.941Z,95879.88
2022-11-07T00:39:29.386Z,95880.91
2022-11-07T00:41:55.775Z,95871.53
2022-11-07T00:44:22.835Z,95880.50
2022-11-07T00:46:49.297Z,95873.13
2022-11-07T00:49:15.669Z,95876.78
2022-11-07T00:51:42.635Z,95871.91
2022-11-07T00:54:09.028Z,95877.59
2022-11-07T00:56:35.477Z,95871.47
2022-11-07T00:59:01.844Z,95871.06
2022-11-07T01:01:29.569Z,95872.06
2022-11-07T01:04:14.845Z,95868.00
2022-11-07T01:06:42.114Z,95868.00
2022-11-07T01:09:12.434Z,95872.66
2022-11-07T01:11:39.719Z,95868.59
2022-11-07T01:14:06.770Z,95871.03
2022-11-07T01:16:35.436Z,95862.50
2022-11-07T01:19:02.659Z,95868.38
2022-11-07T01:21:29.144Z,95862.25
2022-11-07T01:23:55.536Z,95866.13
2022-11-07T01:26:22.015Z,95861.22
2022-11-07T01:28:48.388Z,95862.03
2022-11-07T01:31:15.720Z,95858.97
2022-11-07T01:33:42.469Z,95851.47
2022-11-07T01:36:11.372Z,95853.91
2022-11-07T01:38:39.423Z,95855.94
2022-11-07T01:41:21.229Z,95851.06
2022-11-07T01:43:47.739Z,95846.19
2022-11-07T01:46:14.428Z,95836.44
2022-11-07T01:48:42.424Z,95839.69
2022-11-07T01:51:09.075Z,95836.44
2022-11-07T01:53:35.756Z,95838.06
2022-11-07T01:56:04.036Z,95831.97
2022-11-07T01:58:30.476Z,95834.59
2022-11-07T02:00:56.866Z,95835.63
2022-11-07T02:03:23.259Z,95831.97
2022-11-07T02:05:53.420Z,95841.31
2022-11-07T02:08:21.475Z,95837.84
2022-11-07T02:10:47.965Z,95837.66
2022-11-07T02:13:17.851Z,95837.66
2022-11-07T02:15:44.211Z,95845.19
2022-11-07T02:18:10.687Z,95842.13
2022-11-07T02:20:37.089Z,95842.91
2022-11-07T02:23:09.032Z,95835.16
2022-11-07T02:25:36.325Z,95837.94
2022-11-07T02:28:06.079Z,95841.00
2022-11-07T02:30:34.647Z,95828.66
2022-11-07T02:33:01.557Z,95834.31
2022-11-07T02:35:34.833Z,95838.34
2022-11-07T02:38:02.348Z,95834.91
2022-11-07T02:40:30.450Z,95830.41
2022-11-07T02:42:57.366Z,95835.44
2022-11-07T02:45:26.694Z,95839.16
2022-11-07T02:47:53.160Z,95831.47
2022-11-07T02:50:19.688Z,95822.13
2022-11-07T02:52:46.074Z,95824.97
2022-11-07T02:55:12.843Z,95829.03
2022-11-07T02:57:39.215Z,95826.19
2022-11-07T03:00:06.421Z,95824.16
2022-11-07T03:02:32.950Z,95827.41
2022-11-07T03:04:59.459Z,95822.75
2022-11-07T03:07:25.855Z,95822.53
2022-11-07T03:09:52.471Z,95818.09
2022-11-07T03:12:18.925Z,95828.66
2022-11-07T03:14:45.338Z,95826.81
2022-11-07T03:17:11.737Z,95827.44
2022-11-07T03:19:38.157Z,95824.19
2022-11-07T03:22:04.611Z,95825.00
2022-11-07T03:24:32.533Z,95825.59
2022-11-07T03:26:59.158Z,95825.59
2022-11-07T03:29:25.547Z,95820.53
2022-11-07T03:31:51.905Z,95824.38
2022-11-07T03:34:18.257Z,95825.00
2022-11-07T03:36:44.648Z,95824.00
2022-11-07T03:39:11.040Z,95831.47
2022-11-07T03:41:37.447Z,95828.63
2022-11-07T03:44:03.855Z,95829.59
2022-11-07T03:46:30.297Z,95833.25
2022-11-07T03:48:56.739Z,95828.19
2022-11-07T03:51:23.117Z,95824.53
2022-11-07T03:53:49.514Z,95833.91
2022-11-07T03:56:15.974Z,95832.28
2022-11-07T03:58:42.379Z,95827.38
2022-11-07T04:01:10.508Z,95831.22
2022-11-07T04:03:37.198Z,95830.19
2022-11-07T04:06:03.595Z,95831.00
2022-11-07T04:08:29.982Z,95839.53
2022-11-07T04:10:56.374Z,95839.16
2022-11-07T04:13:41.461Z,95835.09
2022-11-07T04:16:27.790Z,95835.09
2022-11-07T04:18:54.382Z,95826.94
2022-11-07T04:21:20.991Z,95828.59
2022-11-07T04:23:47.351Z,95829.22
2022-11-07T04:26:32.152Z,95823.72
2022-11-07T04:28:58.713Z,95823.28
2022-11-07T04:31:25.399Z,95833.22
2022-11-07T04:33:52.146Z,95826.91
2022-11-07T04:36:19.000Z,95834.59
2022-11-07T04:38:45.445Z,95824.25
2022-11-07T04:41:22.616Z,95816.94
2022-11-07T04:43:49.193Z,95817.13
2022-11-07T04:46:16.416Z,95811.63
2022-11-07T04:48:43.654Z,95806.94
2022-11-07T04:51:28.209Z,95806.94
2022-11-07T04:53:55.796Z,95810.19
2022-11-07T04:56:22.165Z,95812.28
2022-11-07T04:58:48.608Z,95804.94
2022-11-07T05:01:15.018Z,95812.88
2022-11-07T05:03:42.196Z,95825.63
2022-11-07T05:06:10.331Z,95834.97
2022-11-07T05:08:36.705Z,95818.75
2022-11-07T05:11:03.087Z,95822.97
2022-11-07T05:13:29.471Z,95823.19
2022-11-07T05:15:55.835Z,95831.72
2022-11-07T05:18:25.126Z,95830.91
2022-11-07T05:20:51.560Z,95833.31
2022-11-07T05:23:22.161Z,95828.03
2022-11-07T05:25:49.857Z,95824.41
2022-11-07T05:28:28.087Z,95821.97
2022-11-07T05:31:02.335Z,95820.53
2022-11-07T05:33:28.944Z,95809.97
2022-11-07T05:35:55.364Z,95826.81
2022-11-07T05:38:21.722Z,95816.66
2022-11-07T05:40:48.085Z,95818.66
2022-11-07T05:43:15.446Z,95817.22
2022-11-07T05:45:42.110Z,95815.59
2022-11-07T05:48:10.104Z,95822.69
2022-11-07T05:50:36.925Z,95810.09
2022-11-07T05:53:03.948Z,95810.88
2022-11-07T05:55:30.947Z,95819.06
2022-11-07T05:57:57.378Z,95825.31
2022-11-07T06:00:23.953Z,95819.84
2022-11-07T06:02:57.697Z,95821.31
2022-11-07T06:05:24.569Z,95830.25
2022-11-07T06:07:51.066Z,95819.13
2022-11-07T06:10:17.575Z,95820.75
2022-11-07T06:12:43.968Z,95826.41
2022-11-07T06:15:10.532Z,95826.41
2022-11-07T06:17:37.196Z,95835.38
2022-11-07T06:20:04.605Z,95839.44
2022-11-07T06:22:31.096Z,95832.97
2022-11-07T06:24:57.468Z,95836.81
2022-11-07T06:27:23.846Z,95831.75
2022-11-07T06:29:50.229Z,95834.63
2022-11-07T06:32:16.603Z,95835.25
2022-11-07T06:34:42.995Z,95837.25
2022-11-07T06:37:09.395Z,95844.38
2022-11-07T06:39:35.758Z,95840.69
2022-11-07T06:42:02.135Z,95846.59
2022-11-07T06:44:28.498Z,95838.91
2022-11-07T06:46:54.868Z,95839.34
2022-11-07T06:49:21.304Z,95837.56
2022-11-07T06:51:48.118Z,95839.59
2022-11-07T06:54:14.685Z,95846.91
2022-11-07T06:56:41.048Z,95835.97
2022-11-07T06:59:07.466Z,95836.38
2022-11-07T07:01:33.935Z,95839.25
2022-11-07T07:04:01.010Z,95842.13
2022-11-07T07:06:27.439Z,95833.81
2022-11-07T07:08:54.628Z,95844.81
2022-11-07T07:11:21.014Z,95838.94
2022-11-07T07:13:47.430Z,95841.16
2022-11-07T07:16:13.802Z,95843.81
2022-11-07T07:18:40.223Z,95839.16
2022-11-07T07:21:16.153Z,95846.66
2022-11-07T07:23:42.603Z,95844.25
2022-11-07T07:26:13.980Z,95840.19
2022-11-07T07:28:40.922Z,95833.69
2022-11-07T07:31:08.807Z,95838.22
2022-11-07T07:33:35.355Z,95844.94
2022-11-07T07:36:01.888Z,95834.97
2022-11-07T07:38:28.257Z,95836.63
2022-11-07T07:40:54.618Z,95847.41
2022-11-07T07:43:20.989Z,95842.72
2022-11-07T07:45:47.370Z,95845.97
2022-11-07T07:48:13.751Z,95855.56
2022-11-07T07:50:41.529Z,95856.97
2022-11-07T07:53:09.257Z,95864.91
2022-11-07T07:55:35.934Z,95859.25
2022-11-07T07:58:02.315Z,95857.00
2022-11-07T08:00:28.708Z,95860.03
2022-11-07T08:03:01.940Z,95858.22
2022-11-07T08:05:28.429Z,95849.50
2022-11-07T08:07:54.917Z,95864.13
2022-11-07T08:10:42.905Z,95853.38
2022-11-07T08:13:07.894Z,95857.03
2022-11-07T08:15:34.786Z,95848.91
2022-11-07T08:18:02.325Z,95847.88
2022-11-07T08:20:28.718Z,95853.13
2022-11-07T08:23:08.671Z,95850.66
2022-11-07T08:25:39.235Z,95862.88
2022-11-07T08:28:06.170Z,95871.41
2022-11-07T08:30:32.765Z,95863.84
2022-11-07T08:32:59.875Z,95864.00
2022-11-07T08:35:26.502Z,95869.28
2022-11-07T08:37:53.858Z,95878.03
2022-11-07T08:40:20.357Z,95878.81
2022-11-07T08:42:46.801Z,95870.41
2022-11-07T08:45:13.416Z,95864.28
2022-11-07T08:47:39.793Z,95861.81
2022-11-07T08:50:06.394Z,95864.22
2022-11-07T08:52:34.420Z,95858.66
2022-11-07T08:55:00.810Z,95858.03
2022-11-07T08:57:27.174Z,95856.38
2022-11-07T08:59:53.613Z,95854.47
2022-11-07T09:05:06.647Z,95866.66
2022-11-07T09:07:33.090Z,95866.00
2022-11-07T09:09:59.769Z,95861.09
2022-11-07T09:12:26.242Z,95867.81
2022-11-07T09:14:52.613Z,95860.47
2022-11-07T09:17:19.013Z,95869.81
2022-11-07T09:19:45.448Z,95865.13
2022-11-07T09:22:11.897Z,95870.97
2022-11-07T09:24:38.288Z,95868.94
2022-11-07T09:27:04.684Z,95875.41
2022-11-07T09:29:31.087Z,95875.56
2022-11-07T09:31:57.491Z,95875.16
2022-11-07T09:34:23.845Z,95866.16
2022-11-07T09:36:50.212Z,95871.63
2022-11-07T09:39:16.643Z,95875.69
2022-11-07T09:41:54.947Z,95879.16
2022-11-07T09:44:40.987Z,95875.47
2022-11-07T09:47:14.641Z,95878.53
2022-11-07T09:49:44.123Z,95877.47
2022-11-07T09:52:38.522Z,95882.19
2022-11-07T09:55:05.031Z,95881.38
2022-11-07T09:57:34.372Z,95874.66
2022-11-07T10:00:02.403Z,95877.69
2022-11-07T10:02:31.002Z,95874.59
2022-11-07T10:04:59.640Z,95880.50
2022-11-07T10:07:31.301Z,95866.63
2022-11-07T10:10:00.455Z,95873.78
2022-11-07T10:12:45.589Z,95869.06
2022-11-07T10:15:18.241Z,95876.81
2022-11-07T10:17:44.601Z,95867.41
2022-11-07T10:20:14.719Z,95871.09
2022-11-07T10:22:56.356Z,95864.75
2022-11-07T10:25:55.098Z,95864.28
2022-11-07T10:28:22.119Z,95862.84
2022-11-07T10:30:50.446Z,95872.03
2022-11-07T10:33:17.068Z,95875.91
2022-11-07T10:35:45.889Z,95870.16
2022-11-07T10:38:17.533Z,95861.97
2022-11-07T10:44:22.798Z,95855.03
2022-11-07T10:46:51.631Z,95862.56
2022-11-07T10:49:20.851Z,95851.50
2022-11-07T10:51:47.667Z,95850.06
2022-11-07T10:54:21.858Z,95849.69
2022-11-07T10:56:57.312Z,95853.75
2022-11-07T10:59:28.083Z,95849.59
2022-11-07T11:01:58.655Z,95852.88
2022-11-07T11:04:26.548Z,95855.06
2022-11-07T11:06:56.612Z,95843.44
2022-11-07T11:09:23.500Z,95853.63
2022-11-07T11:11:51.822Z,95855.22
2022-11-07T11:14:20.189Z,95849.91
2022-11-07T11:16:51.452Z,95852.56
2022-11-07T11:19:41.217Z,95847.84
2022-11-07T11:22:18.182Z,95848.81
2022-11-07T11:24:44.577Z,95858.41
2022-11-07T11:27:14.094Z,95851.41
2022-11-07T11:29:48.336Z,95850.72
2022-11-07T11:32:22.538Z,95853.75
2022-11-07T11:34:53.088Z,95843.72
2022-11-07T11:37:20.976Z,95846.59
2022-11-07T11:40:00.023Z,95849.03
2022-11-07T11:42:32.357Z,95837.72
2022-11-07T11:45:03.552Z,95834.84
2022-11-07T11:47:41.596Z,95840.31
2022-11-07T11:50:17.021Z,95841.34
2022-11-07T11:52:44.100Z,95841.56
2022-11-07T11:55:14.509Z,95838.31
2022-11-07T11:57:53.229Z,95838.53
2022-11-07T12:00:20.783Z,95858.13
2022-11-07T12:02:47.592Z,95851.53
2022-11-07T12:05:29.185Z,95845.78
2022-11-07T12:07:58.681Z,95843.31
2022-11-07T12:10:25.057Z,95845.41
2022-11-07T12:13:00.420Z,95848.88
2022-11-07T12:15:32.792Z,95848.31
2022-11-07T12:18:06.126Z,95855.22
2022-11-07T12:20:38.725Z,95842.53
2022-11-07T12:23:07.954Z,95847.84
2022-11-07T12:25:40.387Z,95842.09
2022-11-07T12:28:18.980Z,95836.75
2022-11-07T12:30:51.449Z,95835.94
2022-11-07T12:33:36.858Z,95833.59
2022-11-07T12:36:11.006Z,95844.31
2022-11-07T12:38:56.217Z,95832.50
2022-11-07T12:41:28.465Z,95831.34
2022-11-07T12:44:06.692Z,95835.97
2022-11-07T12:46:53.335Z,95840.38
2022-11-07T12:49:29.070Z,95837.06
2022-11-07T12:52:01.083Z,95835.88
2022-11-07T12:54:40.063Z,95843.03
2022-11-07T12:57:15.670Z,95845.31
2022-11-07T12:59:44.332Z,95849.63
2022-11-07T13:02:16.904Z,95856.94
2022-11-07T13:04:53.110Z,95854.63
2022-11-07T13:07:29.190Z,95862.16
2022-11-07T13:09:55.552Z,95860.53
2022-11-07T13:12:26.996Z,95861.50
2022-11-07T13:14:53.693Z,95854.81
2022-11-07T13:17:24.096Z,95859.06
2022-11-07T13:20:00.993Z,95863.59
2022-11-07T13:22:38.282Z,95863.38
2022-11-07T13:25:10.552Z,95864.75
2022-11-07T13:27:40.941Z,95870.53
2022-11-07T13:30:19.140Z,95869.69
2022-11-07T13:32:47.547Z,95861.94
2022-11-07T13:35:22.858Z,95866.44
2022-11-07T13:37:58.312Z,95871.19
2022-11-07T13:40:24.769Z,95870.75
2022-11-07T13:42:56.363Z,95862.31
2022-11-07T13:45:31.606Z,95862.53
2022-11-07T13:48:04.157Z,95871.19
2022-11-07T13:50:54.231Z,95864.09
2022-11-07T13:53:29.496Z,95877.00
2022-11-07T13:56:00.635Z,95868.66
2022-11-07T13:58:28.562Z,95875.84
2022-11-07T14:00:55.175Z,95881.56
2022-11-07T14:03:29.196Z,95876.91
2022-11-07T14:05:56.131Z,95879.44
2022-11-07T14:08:29.009Z,95880.25
2022-11-07T14:10:55.417Z,95886.78
2022-11-07T14:13:24.847Z,95887.38
2022-11-07T14:15:54.006Z,95886.72
2022-11-07T14:18:21.228Z,95888.38
2022-11-07T14:20:53.468Z,95886.72
2022-11-07T14:23:23.782Z,95894.13
2022-11-07T14:26:03.547Z,95898.03
2022-11-07T14:28:34.838Z,95900.66
2022-11-07T14:31:02.489Z,95893.75
2022-11-07T14:33:28.902Z,95892.56
2022-11-07T14:35:55.414Z,95898.31
2022-11-07T14:38:25.478Z,95897.91
2022-11-07T14:40:53.310Z,95903.66
2022-11-07T14:43:21.052Z,95906.50
2022-11-07T14:46:11.340Z,95905.94
2022-11-07T14:48:35.946Z,95914.13
2022-11-07T14:51:02.838Z,95912.91
2022-11-07T14:53:37.139Z,95908.28
2022-11-07T14:56:06.293Z,95915.88
2022-11-07T14:58:32.952Z,95912.66
2022-11-07T15:01:08.521Z,95916.53
2022-11-07T15:03:36.840Z,95924.09
2022-11-07T15:06:03.722Z,95920.28
2022-11-07T15:08:34.779Z,95925.81
2022-11-07T15:11:01.142Z,95922.41
2022-11-07T15:13:29.004Z,95923.28
2022-11-07T15:16:15.446Z,95924.53
2022-11-07T15:18:43.730Z,95932.16
2022-11-07T15:21:11.703Z,95927.09
2022-11-07T15:23:38.133Z,95926.31
2022-11-07T15:26:07.626Z,95930.63
2022-11-07T15:28:50.299Z,95934.34
2022-11-07T15:31:24.710Z,95936.22
2022-11-07T15:33:52.346Z,95944.81
2022-11-07T15:36:19.139Z,95949.31
2022-11-07T15:38:45.621Z,95959.72
2022-11-07T15:41:12.605Z,95953.00
2022-11-07T15:43:39.020Z,95959.53
2022-11-07T15:46:24.316Z,95949.31
2022-11-07T15:48:50.807Z,95950.16
2022-11-07T15:51:17.317Z,95951.00
2022-11-07T15:53:43.741Z,95953.47
2022-11-07T15:56:13.142Z,95955.88
2022-11-07T15:58:39.613Z,95961.78
2022-11-07T16:01:06.068Z,95957.53
2022-11-07T16:03:32.523Z,95960.78
2022-11-07T16:06:01.681Z,95955.50
2022-11-07T16:08:29.159Z,95962.63
2022-11-07T16:11:01.021Z,95963.69
2022-11-07T16:13:27.992Z,95968.56
2022-11-07T16:15:59.645Z,95971.03
2022-11-07T16:18:27.120Z,95971.81
2022-11-07T16:20:53.732Z,95979.97
2022-11-07T16:23:20.173Z,95983.22
2022-11-07T16:25:48.313Z,95986.47
2022-11-07T16:28:18.100Z,95991.75
2022-11-07T16:30:44.813Z,95992.16
2022-11-07T16:33:12.282Z,95993.78
2022-11-07T16:35:39.127Z,96006.16
2022-11-07T16:38:11.430Z,96002.31
2022-11-07T16:40:37.844Z,95999.47
2022-11-07T16:43:05.332Z,96003.91
2022-11-07T16:45:31.770Z,96005.31
2022-11-07T16:47:59.006Z,96013.03
2022-11-07T16:50:25.374Z,96012.19
2022-11-07T16:52:51.785Z,96015.00
2022-11-07T16:55:19.051Z,96017.22
2022-11-07T16:57:45.908Z,96019.22
2022-11-07T17:00:17.496Z,96018.38
2022-11-07T17:02:44.244Z,96020.03
2022-11-07T17:05:10.731Z,96025.88
2022-11-07T17:07:37.107Z,96017.94
2022-11-07T17:10:03.915Z,96014.69
2022-11-07T17:12:30.485Z,96014.88
2022-11-07T17:14:57.125Z,96022.00
2022-11-07T17:17:23.765Z,96021.78
2022-11-07T17:19:50.206Z,96021.16
2022-11-07T17:22:17.813Z,96023.56
2022-11-07T17:24:45.293Z,96032.88
2022-11-07T17:27:20.779Z,96029.81
2022-11-07T17:29:47.262Z,96034.81
2022-11-07T17:32:15.996Z,96031.75
2022-11-07T17:34:42.433Z,96034.97
2022-11-07T17:37:13.415Z,96032.28
2022-11-07T17:39:39.822Z,96034.69
2022-11-07T17:42:06.232Z,96021.63
2022-11-07T17:44:32.616Z,96036.25
2022-11-07T17:47:04.503Z,96046.75
2022-11-07T17:49:30.894Z,96049.38
2022-11-07T17:51:57.825Z,96036.97
2022-11-07T17:54:29.282Z,96043.66
2022-11-07T17:56:56.092Z,96041.97
2022-11-07T17:59:23.346Z,96036.41
2022-11-07T18:01:49.907Z,96048.72
2022-11-07T18:04:16.404Z,96040.75
2022-11-07T18:06:42.824Z,96046.84
2022-11-07T18:09:13.154Z,96041.69
2022-11-07T18:11:39.540Z,96048.75
2022-11-07T18:14:05.991Z,96053.19
2022-11-07T18:16:33.675Z,96047.47
2022-11-07T18:19:00.682Z,96044.19
2022-11-07T18:21:27.381Z,96052.09
2022-11-07T18:23:53.899Z,96051.84
2022-11-07T18:26:32.312Z,96055.50
2022-11-07T18:29:03.124Z,96050.84
2022-11-07T18:31:29.653Z,96036.78
2022-11-07T18:33:57.693Z,96055.34
2022-11-07T18:36:25.760Z,96053.09
2022-11-07T18:38:52.206Z,96047.19
2022-11-07T18:41:20.590Z,96051.09
2022-11-07T18:43:47.107Z,96055.97
2022-11-07T18:46:16.900Z,96053.34
2022-11-07T18:48:43.336Z,96067.16
2022-11-07T18:51:11.468Z,96076.09
2022-11-07T18:53:38.473Z,96071.81
2022-11-07T18:56:06.562Z,96082.09
2022-11-07T18:58:36.897Z,96079.19
2022-11-07T19:01:04.726Z,96073.47
2022-11-07T19:03:33.588Z,96070.19
2022-11-07T19:06:02.665Z,96079.94
2022-11-07T19:08:33.526Z,96079.50
2022-11-07T19:11:00.765Z,96072.94
2022-11-07T19:13:27.937Z,96076.03
2022-11-07T19:15:54.468Z,96071.41
2022-11-07T19:18:21.296Z,96072.66
2022-11-07T19:20:48.361Z,96085.28
2022-11-07T19:23:15.496Z,96079.63
2022-11-07T19:25:42.527Z,96081.63
2022-11-07T19:28:09.541Z,96080.81
2022-11-07T19:30:36.425Z,96075.53
2022-11-07T19:33:03.559Z,96076.00
2022-11-07T19:35:31.002Z,96065.44
2022-11-07T19:37:57.787Z,96074.81
2022-11-07T19:40:24.360Z,96081.38
2022-11-07T19:42:51.568Z,96078.97
2022-11-07T19:45:18.808Z,96064.41
2022-11-07T19:47:45.447Z,96078.22
2022-11-07T19:50:12.156Z,96074.22
2022-11-07T19:52:38.594Z,96071.78
2022-11-07T19:55:05.265Z,96077.84
2022-11-07T19:57:31.753Z,96069.75
2022-11-07T19:59:58.128Z,96077.50
2022-11-07T20:02:34.446Z,96074.22
2022-11-07T20:05:02.959Z,96082.94
2022-11-07T20:07:29.359Z,96080.84
2022-11-07T20:09:56.810Z,96088.25
2022-11-07T20:12:23.211Z,96089.16
2022-11-07T20:14:49.594Z,96097.91
2022-11-07T20:17:16.019Z,96108.97
2022-11-07T20:19:42.415Z,96104.59
2022-11-07T20:22:12.018Z,96104.84
2022-11-07T20:24:38.561Z,96112.56
2022-11-07T20:27:04.974Z,96118.28
2022-11-07T20:29:31.841Z,96125.63
2022-11-07T20:31:58.382Z,96131.53
2022-11-07T20:34:24.870Z,96127.72
2022-11-07T20:36:53.887Z,96129.47
2022-11-07T20:39:20.279Z,96128.50
2022-11-07T20:41:47.371Z,96125.69
2022-11-07T20:44:15.151Z,96120.03
2022-11-07T20:46:43.074Z,96122.59
2022-11-07T20:49:11.577Z,96121.00
2022-11-07T20:51:38.006Z,96121.25
2022-11-07T20:54:04.592Z,96125.53
2022-11-07T20:56:31.470Z,96121.44
2022-11-07T20:58:58.233Z,96132.38
2022-11-07T21:01:26.085Z,96123.88
2022-11-07T21:03:52.644Z,96125.34
2022-11-07T21:06:19.448Z,96127.81
2022-11-07T21:08:47.310Z,96133.47
2022-11-07T21:11:14.359Z,96131.47
2022-11-07T21:13:42.073Z,96130.25
2022-11-07T21:16:09.214Z,96129.22
2022-11-07T21:18:38.715Z,96128.44
2022-11-07T21:21:06.332Z,96140.81
2022-11-07T21:23:32.736Z,96136.53
2022-11-07T21:25:59.140Z,96142.25
2022-11-07T21:28:26.385Z,96138.72
2022-11-07T21:30:59.631Z,96140.28
2022-11-07T21:33:26.097Z,96148.66
2022-11-07T21:35:52.552Z,96137.34
2022-11-07T21:38:19.137Z,96142.41
2022-11-07T21:40:45.535Z,96141.06
2022-11-07T21:43:12.253Z,96143.06
2022-11-07T21:45:38.810Z,96150.28
2022-11-07T21:48:05.343Z,96143.63
2022-11-07T21:50:44.285Z,96142.25
2022-11-07T21:53:11.596Z,96149.22
2022-11-07T21:55:37.980Z,96143.94
2022-11-07T21:58:04.473Z,96140.94
2022-11-07T22:00:35.855Z,96144.59
2022-11-07T22:03:02.863Z,96145.94
2022-11-07T22:05:29.250Z,96142.53
2022-11-07T22:07:55.638Z,96151.41
2022-11-07T22:10:22.003Z,96154.88
2022-11-07T22:12:48.386Z,96157.78
2022-11-07T22:15:14.815Z,96158.94
2022-11-07T22:17:41.183Z,96157.97
2022-11-07T22:20:07.879Z,96158.41
2022-11-07T22:22:36.182Z,96161.69
2022-11-07T22:25:02.593Z,96163.50
2022-11-07T22:27:28.993Z,96164.69
2022-11-07T22:29:55.372Z,96158.22
2022-11-07T22:32:21.831Z,96151.72
2022-11-07T22:34:48.300Z,96155.66
2022-11-07T22:37:14.673Z,96159.91
2022-11-07T22:39:41.046Z,96152.56
2022-11-07T22:42:07.521Z,96165.56
2022-11-07T22:44:33.883Z,96158.28
2022-11-07T22:47:00.254Z,96152.63
2022-11-07T22:49:26.752Z,96149.78
2022-11-07T22:51:53.129Z,96151.88
2022-11-07T22:54:19.507Z,96158.41
2022-11-07T22:56:45.914Z,96151.50
2022-11-07T22:59:12.354Z,96154.16
2022-11-07T23:01:40.653Z,96159.63
2022-11-07T23:04:08.028Z,96147.84
2022-11-07T23:06:36.531Z,96149.31
2022-11-07T23:09:02.919Z,96146.28
2022-11-07T23:11:49.346Z,96150.38
2022-11-07T23:14:17.905Z,96158.09
2022-11-07T23:16:51.786Z,96143.44
2022-11-07T23:19:19.196Z,96155.03
2022-11-07T23:21:45.721Z,96159.66
2022-11-07T23:24:12.294Z,96160.69
2022-11-07T23:26:39.424Z,96157.22
2022-11-07T23:29:10.803Z,96158.06
2022-11-07T23:31:38.516Z,96159.63
2022-11-07T23:34:04.884Z,96153.78
2022-11-07T23:36:31.252Z,96159.84
2022-11-07T23:38:57.638Z,96162.13
2022-11-07T23:41:24.101Z,96160.72
2022-11-07T23:43:52.609Z,96155.91
2022-11-07T23:46:37.933Z,96160.19
2022-11-07T23:49:22.925Z,96155.84
2022-11-07T23:51:49.314Z,96157.25
2022-11-07T23:54:34.244Z,96166.44
2022-11-07T23:57:00.771Z,96161.38
2022-11-07T23:59:45.545Z,96158.34
